Terminal Aerodrome Forecast
Issued by NWS

Home | Current Version | Previous Version | Text Only | Print | Product List | Glossary On
Versions: 1 2 3 4 5 6 7 8 9 10 11 12 13 14 15 16 17 18 19 20 21 22 23 24 25 26 27 28
467
FTAK31 PANC 251740
TAFADU
TAF
PADU 251740Z 2518/2618 34008KT P6SM VCSH SCT015 OVC025
      TEMPO 2518/2520 BKN015
     FM252100 34012KT P6SM SCT015 BKN025
     FM260300 32015G25KT P6SM VCSH SCT020 BKN035=

USA.gov is the U.S. government's official web portal to all federal, state and local government web resources and services.